Time;durP1;ratioP1;P1;durP2;ratioP2;P2;SDS_P1;SDS_P2;PMS_P1;PMS_P2;Temp;Humidity;BMP_temperature;BMP_pressure;BME280_temperature;BME280_humidity;BME280_pressure;Samples;Min_cycle;Max_cycle;Signal;HPM_P1;HPM_P2
2022/10/07 00:00:55;;;;;;;13.82;1.90;;;9.00;99.90;;;7.64;99.04;102350.16;4985159;23;20512;-76
2022/10/07 00:03:23;;;;;;;6.80;2.00;;;8.90;99.90;;;7.62;99.50;102345.81;4952551;28;20467;-77
2022/10/07 00:06:05;;;;;;;19.13;2.42;;;8.90;99.90;;;7.58;99.66;102343.22;4980237;28;20053;-76
2022/10/07 00:08:34;;;;;;;11.27;1.85;;;8.90;99.90;;;7.53;99.37;102347.63;4967484;28;20085;-77
2022/10/07 00:11:20;;;;;;;13.00;2.28;;;8.80;99.90;;;7.49;99.53;102345.03;4966764;28;20126;-77
2022/10/07 00:13:48;;;;;;;18.63;2.17;;;8.70;99.90;;;7.40;100.00;102351.22;4960746;28;20109;-76
2022/10/07 00:16:25;;;;;;;13.52;2.05;;;8.70;99.90;;;7.34;100.00;102341.69;4959193;28;20126;-77
2022/10/07 00:18:55;;;;;;;14.20;1.80;;;8.70;99.90;;;7.29;100.00;102348.69;4952474;28;20519;-76
2022/10/07 00:21:20;;;;;;;17.15;2.67;;;8.60;99.90;;;7.29;100.00;102342.56;4975550;28;20037;-77
2022/10/07 00:23:47;;;;;;;13.32;2.17;;;8.60;99.90;;;7.27;100.00;102342.59;4952294;28;20031;-76
2022/10/07 00:26:17;;;;;;;17.42;1.80;;;8.60;99.90;;;7.26;100.00;102342.63;4953550;28;20070;-76
2022/10/07 00:28:43;;;;;;;17.35;2.78;;;8.50;99.90;;;7.25;100.00;102340.84;4981244;28;20057;-77
2022/10/07 00:31:17;;;;;;;20.90;2.08;;;8.50;99.90;;;7.21;100.00;102341.75;4983830;28;20068;-77
2022/10/07 00:33:43;;;;;;;21.38;2.00;;;8.50;99.90;;;7.16;100.00;102341.78;4984447;28;20790;-77
2022/10/07 00:36:12;;;;;;;13.38;2.47;;;8.40;99.90;;;7.15;100.00;102348.78;4955948;28;20031;-77
2022/10/07 00:38:39;;;;;;;14.02;1.92;;;8.50;99.90;;;7.13;100.00;102336.59;4980495;28;20125;-77
2022/10/07 00:41:16;;;;;;;12.85;1.95;;;8.40;99.90;;;7.10;100.00;102339.22;4972832;23;20134;-77
2022/10/07 00:43:41;;;;;;;14.43;2.08;;;8.40;99.90;;;7.07;100.00;102342.72;4974955;28;20406;-76
2022/10/07 00:46:35;;;;;;;13.88;2.30;;;8.40;99.90;;;7.04;100.00;102334.91;4958126;28;20041;-76
2022/10/07 00:49:13;;;;;;;13.38;2.28;;;8.30;99.90;;;7.00;100.00;102325.31;4960252;28;20030;-77
2022/10/07 00:51:42;;;;;;;20.20;2.58;;;8.30;99.90;;;6.91;100.00;102327.97;4939578;28;20019;-76
2022/10/07 00:54:15;;;;;;;20.58;2.50;;;8.30;99.90;;;6.90;100.00;102323.63;4939475;28;20019;-76
2022/10/07 00:56:46;;;;;;;14.50;2.20;;;8.20;99.90;;;6.89;100.00;102327.09;4957586;28;20062;-76
2022/10/07 00:59:14;;;;;;;18.13;2.53;;;8.20;99.90;;;6.88;100.00;102325.38;4957628;28;20384;-77
2022/10/07 01:01:40;;;;;;;17.48;2.33;;;8.20;99.90;;;6.86;100.00;102321.91;4972342;28;20058;-76
2022/10/07 01:04:12;;;;;;;18.80;2.63;;;8.20;99.90;;;6.81;100.00;102318.44;4939561;28;20081;-77
2022/10/07 01:06:39;;;;;;;17.90;2.03;;;8.10;99.90;;;6.78;100.00;102314.97;4953811;28;20085;-76
2022/10/07 01:09:07;;;;;;;16.08;2.10;;;8.10;99.90;;;6.74;100.00;102315.00;4941525;28;20483;-77
2022/10/07 01:11:56;;;;;;;20.38;2.75;;;8.10;99.90;;;6.75;100.00;102314.97;4934529;28;20035;-76
2022/10/07 01:14:42;;;;;;;22.20;2.40;;;8.10;99.90;;;6.73;100.00;102321.94;4942602;28;20062;-76
2022/10/07 01:17:22;;;;;;;14.60;2.20;;;8.00;99.90;;;6.67;100.00;102306.28;4954480;28;20411;-77
2022/10/07 01:20:05;;;;;;;15.00;2.20;;;8.00;99.90;;;6.67;100.00;102300.16;4983341;23;20533;-77
2022/10/07 01:23:05;;;;;;;12.13;1.75;;;8.10;99.90;;;6.65;100.00;102302.81;4971180;28;20483;-76
2022/10/07 01:26:11;;;;;;;15.43;2.35;;;8.00;99.90;;;6.60;100.00;102293.25;4955113;28;20035;-76
2022/10/07 01:28:48;;;;;;;19.27;2.10;;;8.00;99.90;;;6.57;100.00;102297.59;4955832;28;20030;-76
2022/10/07 01:31:20;;;;;;;14.70;2.65;;;8.00;99.90;;;6.57;100.00;102297.59;4934636;28;20042;-77
2022/10/07 01:33:49;;;;;;;21.27;3.33;;;7.90;99.90;;;6.55;100.00;102288.91;4946775;28;20023;-76
2022/10/07 01:36:19;;;;;;;18.13;2.53;;;7.90;99.90;;;6.50;100.00;102293.28;4949253;28;20031;-76
2022/10/07 01:38:52;;;;;;;20.63;2.78;;;7.90;99.90;;;6.48;100.00;102287.19;4945652;28;20522;-77
2022/10/07 01:41:23;;;;;;;23.98;3.08;;;7.90;99.90;;;6.48;100.00;102278.44;4947785;28;20031;-77
2022/10/07 01:43:52;;;;;;;18.27;2.92;;;7.80;99.90;;;6.45;100.00;102276.72;4946435;28;20391;-77
2022/10/07 01:46:25;;;;;;;14.48;2.33;;;7.90;99.90;;;6.40;100.00;102285.50;4945934;28;20031;-76
2022/10/07 01:48:53;;;;;;;16.73;2.80;;;7.80;99.90;;;6.43;100.00;102280.22;4947014;28;20161;-77
2022/10/07 01:51:27;;;;;;;17.85;2.80;;;7.80;99.90;;;6.43;100.00;102275.00;4946408;28;20039;-76
2022/10/07 01:54:16;;;;;;;17.20;2.60;;;7.80;99.90;;;6.42;100.00;102279.38;4934416;28;20065;-77
2022/10/07 01:57:09;;;;;;;16.63;2.35;;;7.80;99.90;;;6.40;100.00;102269.78;4962540;28;20077;-77
2022/10/07 02:02:27;;;;;;;25.90;3.00;;;7.70;99.90;;;6.32;100.00;102268.06;4986801;23;20047;-77
2022/10/07 02:05:16;;;;;;;19.20;2.63;;;7.70;99.90;;;6.30;100.00;102261.97;4958224;28;20031;-76
2022/10/07 02:08:01;;;;;;;16.13;2.63;;;7.70;99.90;;;6.29;100.00;102270.69;4971979;28;20579;-77
2022/10/07 02:10:40;;;;;;;12.75;2.28;;;7.70;99.90;;;6.30;100.00;102264.56;4970860;28;20049;-77
2022/10/07 02:13:27;;;;;;;21.27;3.53;;;7.70;99.90;;;6.26;100.00;102259.38;4970875;28;20069;-77
2022/10/07 02:16:24;;;;;;;18.25;3.33;;;7.60;99.90;;;6.23;100.00;102256.78;4971262;28;20038;-77
2022/10/07 02:18:52;;;;;;;18.48;2.90;;;7.60;99.90;;;6.24;100.00;102259.41;4956404;28;20031;-77
2022/10/07 02:21:25;;;;;;;16.52;2.60;;;7.70;99.90;;;6.23;100.00;102262.88;4976912;23;20112;-76
2022/10/07 02:23:53;;;;;;;23.40;2.90;;;7.60;99.90;;;6.24;100.00;102261.13;4985460;28;20034;-77
2022/10/07 02:26:21;;;;;;;14.05;2.90;;;7.60;99.90;;;6.25;100.00;102255.88;4945415;28;20797;-77
2022/10/07 02:28:51;;;;;;;15.07;2.47;;;7.60;99.90;;;6.26;100.00;102256.75;4972087;28;20066;-76
2022/10/07 02:31:25;;;;;;;20.30;2.45;;;7.60;99.90;;;6.26;100.00;102256.75;4972033;28;20114;-77
2022/10/07 02:33:52;;;;;;;16.98;2.85;;;7.60;99.90;;;6.24;100.00;102246.31;4955682;28;20066;-77
2022/10/07 02:36:31;;;;;;;14.27;2.78;;;7.60;99.90;;;6.21;100.00;102238.47;4954753;28;20030;-77
2022/10/07 02:38:59;;;;;;;20.88;3.05;;;7.50;99.90;;;6.18;100.00;102234.97;4970796;28;20031;-76
2022/10/07 02:42:08;;;;;;;12.93;2.58;;;7.50;99.90;;;6.15;100.00;102233.25;4945906;23;20622;-77
2022/10/07 02:45:42;;;;;;;14.27;2.35;;;7.50;99.90;;;6.07;100.00;102233.31;4922636;28;20583;-77
2022/10/07 02:48:20;;;;;;;16.02;2.80;;;7.40;99.90;;;6.02;100.00;102224.59;4910313;29;20453;-76
2022/10/07 02:50:52;;;;;;;17.55;2.72;;;7.40;99.90;;;5.99;100.00;102226.38;4892653;29;20036;-77
2022/10/07 02:53:20;;;;;;;20.00;2.67;;;7.40;99.90;;;5.97;100.00;102212.44;4911096;29;20042;-76
2022/10/07 02:55:49;;;;;;;13.32;2.47;;;7.30;99.90;;;5.95;100.00;102215.91;4926349;28;20020;-76
2022/10/07 02:58:17;;;;;;;15.85;2.72;;;7.30;99.90;;;5.94;100.00;102210.66;4932477;28;20432;-77
2022/10/07 03:01:09;;;;;;;19.02;2.83;;;7.30;99.90;;;5.90;100.00;102199.34;4950039;23;20066;-77
2022/10/07 03:03:47;;;;;;;25.48;3.13;;;7.30;99.90;;;5.82;100.00;102203.72;4956091;28;20085;-76
2022/10/07 03:06:28;;;;;;;20.23;4.15;;;;;;;5.81;100.00;102202.00;4943646;28;20543;-77
2022/10/07 03:09:07;;;;;;;21.77;3.30;;;;;;;5.79;100.00;102208.97;4968225;28;20043;-77
2022/10/07 03:11:34;;;;;;;23.25;3.10;;;7.20;99.90;;;5.84;100.00;102209.81;4961468;28;20538;-77
2022/10/07 03:14:00;;;;;;;22.17;3.00;;;7.20;99.90;;;5.83;100.00;102200.25;4944936;28;20031;-77
2022/10/07 03:16:26;;;;;;;14.38;2.95;;;7.20;99.90;;;5.83;100.00;102194.13;4946962;28;20032;-77
2022/10/07 03:18:54;;;;;;;18.48;3.55;;;7.20;99.90;;;5.85;100.00;102200.22;4967154;28;20029;-77
2022/10/07 03:21:20;;;;;;;25.77;3.47;;;7.20;99.90;;;5.83;100.00;102197.63;4944139;28;20028;-77
2022/10/07 03:23:51;;;;;;;21.33;4.03;;;7.20;99.90;;;5.84;100.00;102201.09;4946532;28;20031;-77
2022/10/07 03:26:18;;;;;;;20.92;3.22;;;7.20;99.90;;;5.82;100.00;102201.09;4943605;28;20045;-77
2022/10/07 03:28:47;;;;;;;21.90;3.50;;;7.20;99.90;;;5.80;100.00;102189.78;4959149;28;20356;-76
2022/10/07 03:31:14;;;;;;;16.52;2.88;;;7.20;99.90;;;5.79;100.00;102192.38;4961440;28;20467;-77
2022/10/07 03:33:40;;;;;;;31.50;4.07;;;7.10;99.90;;;5.77;100.00;102189.81;4958154;28;20109;-77
2022/10/07 03:36:15;;;;;;;22.48;3.15;;;7.10;99.90;;;5.74;100.00;102184.56;4945676;28;20530;-77
2022/10/07 03:38:40;;;;;;;29.15;4.20;;;7.10;99.90;;;5.72;100.00;102187.22;4944769;28;20035;-77
2022/10/07 03:41:06;;;;;;;18.55;3.50;;;7.10;99.90;;;5.73;100.00;102180.22;4951692;28;20122;-76
2022/10/07 03:43:32;;;;;;;21.20;3.03;;;7.10;99.90;;;5.74;100.00;102184.56;4928653;28;20178;-77
2022/10/07 03:46:01;;;;;;;12.77;3.08;;;7.10;99.90;;;5.75;100.00;102178.47;4952268;28;20380;-76
2022/10/07 03:48:30;;;;;;;30.35;3.83;;;7.10;99.90;;;5.73;100.00;102175.88;4928109;28;20527;-76
2022/10/07 03:50:59;;;;;;;21.63;3.53;;;7.10;99.90;;;5.73;100.00;102178.47;4951427;28;20051;-76
2022/10/07 03:53:28;;;;;;;17.95;2.83;;;7.10;99.90;;;5.71;100.00;102169.78;4958612;28;20499;-77
2022/10/07 03:55:57;;;;;;;15.63;2.78;;;7.10;99.90;;;5.70;100.00;102169.75;4937449;28;20034;-77
2022/10/07 03:58:22;;;;;;;18.98;3.13;;;7.00;99.90;;;5.67;100.00;102172.41;4944802;28;20031;-77
2022/10/07 04:00:48;;;;;;;18.13;3.08;;;7.00;99.90;;;5.65;100.00;102166.31;4943981;28;20151;-76
2022/10/07 04:03:17;;;;;;;18.95;2.78;;;7.00;99.90;;;5.63;100.00;102175.91;4957432;28;20363;-77
2022/10/07 04:05:44;;;;;;;24.17;3.03;;;6.90;99.90;;;5.59;100.00;102171.53;4958169;28;20035;-77
2022/10/07 04:08:16;;;;;;;27.80;3.90;;;6.90;99.90;;;5.53;100.00;102165.47;4944316;28;20037;-76
2022/10/07 04:10:41;;;;;;;22.10;3.20;;;6.80;99.90;;;5.50;100.00;102159.38;4944304;28;20078;-77
2022/10/07 04:13:07;;;;;;;13.15;2.65;;;6.90;99.90;;;5.51;100.00;102166.34;4942825;28;20460;-77
2022/10/07 04:15:34;;;;;;;13.70;2.88;;;6.80;99.90;;;5.52;100.00;102161.09;4959992;28;20031;-76
2022/10/07 04:18:00;;;;;;;19.35;4.15;;;6.90;99.90;;;5.50;100.00;102159.38;4931202;28;20453;-77
2022/10/07 04:20:26;;;;;;;18.13;3.33;;;6.80;99.90;;;5.50;100.00;102168.06;4943652;28;20045;-76
2022/10/07 04:22:54;;;;;;;18.13;3.38;;;6.80;99.90;;;5.46;100.00;102163.72;4925178;28;20039;-76
2022/10/07 04:25:36;;;;;;;19.42;3.67;;;6.80;99.90;;;5.43;100.00;102163.75;4955941;28;20171;-77
2022/10/07 04:28:14;;;;;;;23.63;3.38;;;6.80;99.90;;;5.39;100.00;102156.78;4947756;28;20042;-77
2022/10/07 04:30:42;;;;;;;20.25;3.28;;;6.70;99.90;;;5.35;100.00;102158.53;4963039;28;20031;-76
2022/10/07 04:33:09;;;;;;;16.23;2.95;;;6.70;99.90;;;5.32;100.00;102163.78;4950131;28;20034;-76
2022/10/07 04:35:39;;;;;;;21.58;3.42;;;6.70;99.90;;;5.33;100.00;102148.97;4962373;28;20487;-76
2022/10/07 04:38:09;;;;;;;18.65;4.32;;;6.70;99.90;;;5.33;100.00;102149.84;4958678;28;20027;-76
2022/10/07 04:40:39;;;;;;;27.80;3.63;;;6.60;99.90;;;5.35;100.00;102144.59;4945964;28;20019;-76
2022/10/07 04:43:19;;;;;;;17.95;3.38;;;6.70;99.90;;;5.38;100.00;102143.72;4945935;28;20031;-77
2022/10/07 04:46:01;;;;;;;23.00;3.97;;;6.70;99.90;;;5.42;100.00;102141.13;4947563;28;20038;-77
2022/10/07 04:48:27;;;;;;;10.40;3.10;;;6.80;99.90;;;5.44;100.00;102134.16;4959317;28;20097;-77
2022/10/07 04:50:53;;;;;;;22.23;3.70;;;6.80;99.90;;;5.45;100.00;102141.09;4945925;28;20026;-77
2022/10/07 04:53:19;;;;;;;22.27;4.43;;;6.80;99.90;;;5.47;100.00;102141.13;4944347;28;20126;-76
2022/10/07 04:55:48;;;;;;;24.80;3.88;;;6.80;99.90;;;5.48;100.00;102135.88;4959382;28;20114;-76
2022/10/07 04:58:16;;;;;;;23.23;4.63;;;6.80;99.90;;;5.49;100.00;102142.84;4943568;28;20055;-77
2022/10/07 05:00:47;;;;;;;24.52;4.10;;;6.80;99.90;;;5.48;100.00;102140.22;4942613;28;20033;-76
2022/10/07 05:03:15;;;;;;;25.83;4.50;;;6.80;99.90;;;5.46;100.00;102142.84;4958341;28;20488;-77
2022/10/07 05:05:47;;;;;;;16.75;3.05;;;6.80;99.90;;;5.44;100.00;102134.16;4941014;28;20031;-77
2022/10/07 05:09:01;;;;;;;;;;;;;;;;;;;;;
2022/10/07 05:11:27;;;;;;;20.98;3.85;;;6.70;99.90;;;5.35;100.00;102128.94;4948572;28;20053;-83
2022/10/07 05:13:57;;;;;;;23.38;4.60;;;6.70;99.90;;;5.32;100.00;102134.19;4950464;28;20094;-84
2022/10/07 05:17:24;;;;;;;22.48;5.43;;;;;;;5.28;100.00;102128.09;4960447;28;20038;-83
2022/10/07 05:20:36;;;;;;;19.33;3.28;;;;;;;5.24;100.00;102128.09;4994758;23;20570;-83
2022/10/07 05:23:47;;;;;;;28.30;5.15;;;6.50;99.90;;;5.19;100.00;102129.88;4974343;28;20073;-84
2022/10/07 05:29:38;;;;;;;24.38;4.53;;;6.50;99.90;;;5.15;100.00;102126.38;4859742;29;20032;-83
2022/10/07 05:32:17;;;;;;;21.77;4.35;;;6.50;99.90;;;5.17;100.00;102115.94;4960051;28;20072;-83
2022/10/07 05:34:46;;;;;;;20.50;4.85;;;6.50;99.90;;;5.21;100.00;102128.13;4959596;28;20058;-85
2022/10/07 05:40:37;;;;;;;26.75;5.07;;;6.50;99.90;;;5.27;100.00;102109.78;5010802;23;20522;-82
2022/10/07 05:43:35;;;;;;;20.17;5.30;;;6.50;99.90;;;5.31;100.00;102127.19;4977984;28;20031;-83
2022/10/07 05:46:26;;;;;;;27.52;4.72;;;;;;;5.35;100.00;102118.50;4972461;28;20046;-83
2022/10/07 05:49:07;;;;;;;27.23;6.18;;;;;;;5.40;100.00;102123.69;4996863;28;20497;-83
2022/10/07 05:52:18;;;;;;;30.98;5.53;;;6.60;99.90;;;5.48;100.00;102119.31;4994914;28;20254;-83
2022/10/07 05:54:48;;;;;;;21.60;6.15;;;6.70;99.90;;;5.55;100.00;102127.16;4968072;28;20049;-83
2022/10/07 05:57:45;;;;;;;25.13;5.38;;;6.80;99.90;;;5.66;100.00;102124.50;4994039;28;20545;-84
2022/10/07 06:01:01;;;;;;;24.77;5.43;;;6.90;99.90;;;5.80;100.00;102134.88;4977923;28;20028;-83
2022/10/07 06:04:06;;;;;;;24.95;6.65;;;7.00;99.90;;;7.73;100.00;102147.31;4995099;28;20042;-83
2022/10/07 06:07:08;;;;;;;29.50;6.35;;;7.60;99.90;;;10.97;96.84;102154.50;4974844;28;20034;-82
2022/10/07 06:15:22;;;;;;;18.75;5.10;;;9.30;99.90;;;13.14;80.44;102171.81;4997186;28;20062;-83
2022/10/07 06:17:48;;;;;;;22.00;3.90;;;;;;;16.63;67.33;102161.78;4976711;28;20395;-81
2022/10/07 06:21:08;;;;;;;21.33;3.30;;;11.90;99.90;;;19.31;58.33;102164.94;4996965;28;20040;-82
2022/10/07 06:23:37;;;;;;;15.50;3.33;;;;;;;21.22;53.16;102163.38;4976416;28;20529;-84
2022/10/07 06:26:15;;;;;;;22.33;3.10;;;;;;;22.37;49.73;102162.41;4997799;28;20129;-84
2022/10/07 06:29:30;;;;;;;15.68;3.83;;;15.90;99.90;;;23.21;47.25;102168.59;4980497;28;20039;-81
2022/10/07 06:31:55;;;;;;;23.27;3.78;;;17.00;99.90;;;23.95;45.16;102183.38;4996684;28;20038;-81
2022/10/07 06:34:47;;;;;;;15.57;3.20;;;17.70;99.90;;;24.49;43.78;102186.22;4976220;28;20487;-83
2022/10/07 06:37:28;;;;;;;14.05;2.58;;;;;;;24.90;42.94;102190.84;4991106;28;20053;-82
2022/10/07 06:40:19;;;;;;;;;;;;;;;;;;;;;
2022/10/07 06:42:47;;;;;;;14.65;2.97;;;19.70;99.90;;;25.97;42.03;102212.22;4994035;28;20040;-82
2022/10/07 06:45:13;;;;;;;17.85;2.78;;;20.40;99.90;;;26.53;41.28;102218.91;4992654;28;20042;-82
2022/10/07 06:47:46;;;;;;;14.88;2.72;;;21.00;99.90;;;27.05;40.14;102210.56;4993657;28;20126;-83
2022/10/07 06:50:18;;;;;;;16.40;2.75;;;21.70;99.90;;;27.39;39.56;102214.50;4993057;28;20030;-84
2022/10/07 06:52:57;;;;;;;19.42;3.17;;;22.30;99.90;;;27.76;38.75;102216.38;4961171;28;20029;-83
2022/10/07 06:55:50;;;;;;;14.18;2.65;;;22.90;99.90;;;28.23;38.18;102220.91;4992388;28;20034;-84
2022/10/07 06:58:17;;;;;;;16.80;3.00;;;23.50;99.20;;;28.70;37.44;102225.31;4992288;28;20521;-81
2022/10/07 07:00:56;;;;;;;18.40;2.80;;;24.00;99.20;;;29.04;37.32;102226.28;4993621;28;20030;-82
2022/10/07 07:03:36;;;;;;;13.05;2.67;;;24.50;99.00;;;29.41;36.13;102236.09;4988324;28;20060;-82
2022/10/07 07:06:28;;;;;;;12.82;2.80;;;25.00;99.00;;;29.61;36.81;102235.88;4991954;28;20034;-83
2022/10/07 07:09:03;;;;;;;12.40;2.80;;;25.60;98.50;;;29.86;36.34;102245.03;4975493;28;20560;-83
2022/10/07 07:11:54;;;;;;;15.38;2.63;;;26.00;97.10;;;29.93;36.34;102242.53;4974360;28;20026;-84
2022/10/07 07:14:40;;;;;;;;;;;;;;;;;;;;;
2022/10/07 07:17:22;;;;;;;;;;;;;;;;;;;;;
2022/10/07 07:19:48;;;;;;;16.23;3.30;;;;;;;29.97;36.05;102238.47;4996011;28;20391;-82
2022/10/07 07:22:17;;;;;;;14.90;3.33;;;27.30;93.60;;;29.88;35.88;102234.88;4974613;28;20064;-83
2022/10/07 07:24:43;;;;;;;21.30;3.28;;;27.50;94.00;;;29.79;35.65;102234.00;4992554;28;20049;-80
2022/10/07 07:27:08;;;;;;;14.73;2.63;;;27.60;94.50;;;29.67;36.40;102232.53;4992599;28;20109;-79
2022/10/07 07:29:40;;;;;;;14.05;2.92;;;27.80;93.30;;;29.50;36.16;102234.28;4974729;28;20026;-80
2022/10/07 07:32:07;;;;;;;10.25;2.70;;;27.90;93.00;;;29.49;35.98;102238.03;4976959;28;20055;-79
2022/10/07 07:34:35;;;;;;;14.68;2.85;;;28.00;92.20;;;29.22;36.42;102226.31;4991756;28;20109;-80
2022/10/07 07:37:00;;;;;;;17.30;3.05;;;28.10;91.50;;;28.97;36.35;102232.50;4991296;28;20034;-81
2022/10/07 07:39:32;;;;;;;16.33;3.15;;;28.20;91.40;;;29.05;36.21;102227.16;4989854;28;20025;-81
2022/10/07 07:41:57;;;;;;;13.57;3.20;;;28.20;90.40;;;28.56;36.46;102227.56;4993418;28;20073;-79
2022/10/07 07:44:28;;;;;;;22.08;3.65;;;28.20;91.20;;;28.63;36.80;102225.06;4979926;28;20030;-80
2022/10/07 07:47:02;;;;;;;51.55;6.50;;;28.10;90.80;;;28.24;36.96;102217.19;4985312;28;20114;-82
2022/10/07 07:49:30;;;;;;;11.40;2.40;;;28.00;90.40;;;28.08;37.44;102214.28;4975939;28;20033;-81
2022/10/07 07:52:04;;;;;;;6.32;2.10;;;28.00;89.20;;;27.65;37.56;102208.47;4976282;28;20049;-82
2022/10/07 07:54:31;;;;;;;5.13;1.35;;;27.90;90.30;;;27.65;38.03;102203.06;4992386;28;20117;-81
2022/10/07 07:56:57;;;;;;;38.95;10.73;;;27.90;89.90;;;27.46;38.27;102203.97;4974867;28;20089;-81
2022/10/07 07:59:24;;;;;;;15.20;5.18;;;27.80;89.40;;;27.15;38.20;102200.59;4973954;28;20027;-82
2022/10/07 08:01:56;;;;;;;15.70;3.25;;;27.60;89.00;;;26.48;39.15;102203.13;4976609;28;20046;-81
2022/10/07 08:04:23;;;;;;;12.93;2.95;;;27.40;89.30;;;26.23;39.43;102196.38;4986985;28;20556;-80
2022/10/07 08:06:52;;;;;;;17.38;3.30;;;27.10;88.60;;;25.83;39.97;102189.16;4992896;28;20026;-80
2022/10/07 08:09:23;;;;;;;23.30;4.20;;;26.80;89.90;;;25.65;40.21;102183.50;4990396;28;20030;-81
2022/10/07 08:11:49;;;;;;;12.52;2.53;;;26.70;89.90;;;25.27;40.84;102179.63;4984094;28;20038;-81
2022/10/07 08:14:16;;;;;;;234.80;36.67;;;26.50;89.90;;;25.25;41.09;102172.66;4974346;28;20026;-81
2022/10/07 08:16:42;;;;;;;16.85;2.80;;;26.40;90.50;;;25.17;41.27;102168.75;4973447;28;20434;-82
2022/10/07 08:19:18;;;;;;;8.55;2.50;;;26.30;90.00;;;24.91;40.96;102162.91;4991748;28;20035;-81
2022/10/07 08:21:43;;;;;;;9.23;2.20;;;26.20;89.90;;;24.70;41.60;102156.63;4974202;28;20109;-83
2022/10/07 08:24:11;;;;;;;8.43;2.15;;;26.00;90.60;;;24.55;42.01;102161.47;4974390;28;20030;-82
2022/10/07 08:26:37;;;;;;;8.82;2.00;;;25.90;90.80;;;24.40;42.34;102155.50;4991365;28;20029;-80
2022/10/07 08:29:03;;;;;;;8.43;2.00;;;25.80;90.30;;;24.22;42.26;102149.78;4974097;23;20066;-81
2022/10/07 08:31:30;;;;;;;8.25;1.90;;;25.60;90.70;;;24.11;42.46;102141.75;4969288;28;20027;-81
2022/10/07 08:34:01;;;;;;;8.30;1.80;;;25.40;90.40;;;23.60;43.01;102135.03;4972329;28;20047;-82
2022/10/07 08:36:31;;;;;;;13.38;3.47;;;25.00;91.30;;;23.39;44.00;102123.31;4963295;28;20030;-80
2022/10/07 08:38:57;;;;;;;16.08;3.60;;;24.80;91.70;;;23.45;43.72;102120.13;4986764;28;20042;-81
2022/10/07 08:41:32;;;;;;;18.58;3.70;;;24.60;91.70;;;23.12;43.89;102117.28;4971713;28;20023;-82
2022/10/07 08:44:11;;;;;;;16.88;3.17;;;24.30;91.70;;;22.78;44.48;102105.59;4973452;28;20036;-81
2022/10/07 08:46:40;;;;;;;16.38;3.10;;;24.00;92.20;;;22.55;45.15;102107.34;4974645;28;20027;-81
2022/10/07 08:49:15;;;;;;;15.38;3.35;;;23.80;92.90;;;22.61;45.08;102106.88;4976381;23;20057;-81
2022/10/07 08:51:52;;;;;;;15.48;3.67;;;23.60;92.80;;;22.54;45.29;102094.91;4975987;28;20140;-82
2022/10/07 08:54:32;;;;;;;11.57;3.03;;;23.50;93.80;;;22.67;45.57;102098.34;4975324;28;20035;-80
2022/10/07 08:57:11;;;;;;;15.15;3.78;;;23.50;93.60;;;22.68;45.47;102089.34;4978413;28;20042;-81
2022/10/07 08:59:43;;;;;;;18.65;3.72;;;23.40;93.60;;;22.60;45.47;102083.69;4975108;28;20122;-81
2022/10/07 09:02:39;;;;;;;15.80;4.55;;;23.20;93.50;;;22.28;45.59;102081.59;4978245;28;20074;-81
2022/10/07 09:05:27;;;;;;;15.90;3.92;;;22.90;94.30;;;22.16;46.85;102074.47;4992790;28;20030;-81
2022/10/07 09:08:02;;;;;;;13.15;3.35;;;22.70;94.00;;;21.86;46.84;102067.72;4973932;28;20035;-82
2022/10/07 09:10:52;;;;;;;23.52;3.85;;;22.30;94.20;;;21.26;47.58;102063.09;4974672;28;20494;-82
2022/10/07 09:13:35;;;;;;;13.18;3.35;;;21.80;94.70;;;20.81;48.55;102058.16;4990787;28;20034;-82
2022/10/07 09:16:27;;;;;;;15.93;3.70;;;21.20;95.50;;;20.31;49.41;102043.69;4976605;28;20121;-81
2022/10/07 09:19:01;;;;;;;13.35;3.35;;;20.70;96.30;;;20.05;50.05;102045.41;4969423;28;21092;-82
2022/10/07 09:21:43;;;;;;;14.73;3.53;;;20.40;96.90;;;19.64;51.35;102043.59;4967704;28;20043;-83
2022/10/07 09:24:27;;;;;;;12.10;3.47;;;20.00;96.90;;;18.98;52.30;102035.22;4975281;28;20476;-81
2022/10/07 09:27:17;;;;;;;17.10;3.80;;;19.70;97.40;;;18.52;53.11;102029.97;4984367;28;20050;-82
2022/10/07 09:29:50;;;;;;;16.00;3.55;;;19.30;97.60;;;17.99;54.16;102028.63;4965950;23;20057;-81
2022/10/07 09:32:23;;;;;;;18.50;3.90;;;19.00;98.10;;;17.73;55.43;102022.97;4972868;28;20495;-81
2022/10/07 09:34:52;;;;;;;11.68;3.17;;;18.80;98.50;;;17.61;55.83;102023.63;4959068;28;20452;-82
2022/10/07 09:37:28;;;;;;;15.20;3.25;;;18.60;98.60;;;17.49;55.74;102019.81;4960326;28;20027;-81
2022/10/07 09:40:18;;;;;;;17.15;3.67;;;18.50;99.10;;;17.50;55.84;102010.91;4944151;28;20047;-82
2022/10/07 09:42:53;;;;;;;17.88;3.75;;;18.50;98.90;;;17.42;55.99;102008.66;4936728;28;20039;-83
2022/10/07 09:48:33;;;;;;;17.23;3.10;;;18.30;99.30;;;17.25;56.09;102007.88;4964893;23;21174;-82
2022/10/07 09:51:25;;;;;;;21.65;3.45;;;18.20;98.50;;;17.07;55.77;101996.44;4958723;28;20065;-81
2022/10/07 09:54:03;;;;;;;17.35;3.25;;;18.10;98.90;;;16.86;55.99;101993.09;4955449;28;20539;-82
2022/10/07 09:56:45;;;;;;;11.77;2.90;;;18.00;98.80;;;16.70;56.28;101996.53;4965876;28;20035;-81
2022/10/07 09:59:35;;;;;;;17.48;3.03;;;17.80;98.90;;;16.65;56.48;101985.28;4952667;28;20054;-81
2022/10/07 10:02:19;;;;;;;13.18;2.92;;;17.80;99.80;;;16.85;56.88;101981.63;4956704;28;20567;-83
2022/10/07 10:05:01;;;;;;;15.07;2.85;;;17.90;99.70;;;16.92;56.63;101967.03;4965869;28;20122;-81
2022/10/07 10:07:40;;;;;;;13.32;2.80;;;17.90;99.50;;;16.94;56.32;101967.81;4963618;28;20038;-80
2022/10/07 10:10:33;;;;;;;14.30;2.90;;;18.00;99.50;;;16.99;55.88;101951.59;4935864;28;20127;-80
2022/10/07 10:13:05;;;;;;;13.98;3.53;;;18.00;99.10;;;16.96;55.96;101941.97;4945764;28;20038;-80
2022/10/07 10:15:44;;;;;;;17.63;2.45;;;18.00;99.30;;;17.04;56.42;101943.34;4962833;28;20570;-81
2022/10/07 10:18:40;;;;;;;12.75;2.67;;;18.00;99.70;;;17.17;55.63;101939.06;4964228;28;20424;-81
2022/10/07 10:21:49;;;;;;;11.32;2.50;;;18.10;99.30;;;17.08;55.43;101928.94;4950457;28;20102;-81
2022/10/07 10:24:15;;;;;;;17.35;3.00;;;18.00;99.30;;;17.10;56.22;101932.38;4966288;28;20023;-81
2022/10/07 10:27:10;;;;;;;17.63;2.55;;;18.10;99.20;;;16.95;55.21;101928.75;4962083;28;20071;-81
2022/10/07 10:30:06;;;;;;;12.02;2.15;;;18.00;98.90;;;16.90;55.32;101915.72;4941442;28;20070;-82
2022/10/07 10:33:09;;;;;;;12.50;2.65;;;17.90;99.20;;;16.92;55.84;101921.81;4937742;28;20039;-81
2022/10/07 10:35:59;;;;;;;16.10;2.50;;;17.90;99.60;;;16.93;56.71;101910.25;4940408;28;20045;-83
2022/10/07 10:39:17;;;;;;;15.00;2.83;;;17.90;99.70;;;16.90;55.87;101905.06;4964069;28;20058;-82
2022/10/07 10:42:06;;;;;;;9.18;1.95;;;17.90;99.60;;;16.93;56.42;101909.34;4960513;28;20047;-81
2022/10/07 10:45:23;;;;;;;15.30;2.60;;;17.90;99.90;;;16.94;55.92;101898.63;4933975;28;20530;-80
2022/10/07 10:48:23;;;;;;;14.75;2.10;;;17.90;99.70;;;16.84;55.75;101894.75;4948209;28;20522;-82
2022/10/07 10:51:24;;;;;;;;;;;;;;;;;;;;;
2022/10/07 10:54:04;;;;;;;13.00;2.10;;;17.90;99.50;;;16.93;55.78;101880.97;4966365;28;21341;-82
2022/10/07 10:57:02;;;;;;;15.65;2.83;;;17.90;99.90;;;17.03;56.69;101876.00;4935062;28;20078;-81
2022/10/07 11:00:00;;;;;;;14.48;2.53;;;18.00;99.90;;;17.07;56.33;101871.38;4965792;28;20040;-80
2022/10/07 11:02:37;;;;;;;11.32;2.40;;;18.00;99.80;;;17.02;56.28;101872.47;4965933;28;20034;-80
2022/10/07 11:05:27;;;;;;;17.88;2.60;;;18.00;99.80;;;17.04;56.22;101866.19;4964083;28;20670;-81
2022/10/07 11:08:16;;;;;;;13.35;2.30;;;18.00;99.50;;;16.99;55.75;101861.13;4963209;28;20102;-81
2022/10/07 11:11:10;;;;;;;11.57;2.40;;;17.90;98.70;;;16.93;55.10;101853.50;4950302;28;20038;-81
2022/10/07 11:14:06;;;;;;;11.60;2.08;;;17.90;98.60;;;16.89;55.18;101843.97;4963329;28;20042;-82
2022/10/07 11:16:44;;;;;;;13.57;1.90;;;17.90;99.40;;;16.93;55.78;101841.06;4950288;28;20055;-81
2022/10/07 11:19:31;;;;;;;12.60;1.88;;;17.80;98.80;;;16.90;54.34;101840.38;4947627;28;20039;-80
2022/10/07 11:22:00;;;;;;;8.23;1.60;;;17.80;98.80;;;16.87;54.48;101841.41;4939178;28;20030;-81